Low temp

Not for real navigation. The accuracy of this data is not assured See disclaimer for more information



ICAO NAME COUNTRY WIND Kt GUST Kt VIS m TEMP/DEW C BARO METAR
NZSP Amundsen-Scott South Pole Stat Antarctica 11 0 1600 -59/0 28.43 NZSP 261150Z 09011KT 1600 BR FEW000 M59/ A2843 RMK BR FEW000 CLN AIR 09012KT ALL WNDS GRID
CYIO Pond Inlet, N. W. T. Canada 6 0 9999 -31/-35 30.18 CYIO 261200Z AUTO 19006KT 9SM CAVOK M31/M35 A3018 RMK SLP232
CWKD Bonnard 1, Que. Canada 5 0 9999 -31/-34 29.92 CWKD 261100Z AUTO 27005KT M31/M34 RMK AO1 SLP368 T13111344 53013
PASK Selawik AK United States 0 0 9999 -30/-33 30.09 PASK 261156Z AUTO 00000KT 10SM CAVOK M30/M33 A3009 RMK AO2 SLP186 T13001328 11256 21306 51005 FZRANO
CXAT 3 0 9999 -29/-32 29.92 CXAT 261200Z AUTO 35003KT M29/M32 RMK AO1 SOG 03 SLP216 T12921323

Show more